Time;durP1;ratioP1;P1;durP2;ratioP2;P2;SDS_P1;SDS_P2;PMS_P1;PMS_P2;Temp;Humidity;BMP_temperature;BMP_pressure;BME280_temperature;BME280_humidity;BME280_pressure;Samples;Min_cycle;Max_cycle;Signal;HPM_P1;HPM_P2
2022/03/15 00:02:12;;;;;;;63.23;53.15;;;28.50;90.70;;;;;;1896792;74;21221;-88
2022/03/15 00:04:43;;;;;;;63.42;52.03;;;28.60;90.80;;;;;;1871267;75;21233;-88
2022/03/15 00:07:15;;;;;;;62.27;52.17;;;28.50;90.90;;;;;;1900430;75;21034;-88
2022/03/15 00:09:46;;;;;;;63.65;52.27;;;28.50;91.00;;;;;;1887994;74;21147;-88
2022/03/15 00:12:16;;;;;;;65.47;52.93;;;28.50;91.00;;;;;;1818648;78;21560;-88
2022/03/15 00:14:47;;;;;;;59.00;51.90;;;28.50;91.20;;;;;;1856893;76;21637;-88
2022/03/15 00:17:20;;;;;;;63.63;52.40;;;28.50;91.20;;;;;;1918727;73;21627;-88
2022/03/15 00:19:52;;;;;;;62.98;50.92;;;28.50;91.20;;;;;;1868813;75;21240;-88
2022/03/15 00:22:22;;;;;;;59.55;52.03;;;28.50;91.60;;;;;;1885619;74;21084;-88
2022/03/15 00:24:53;;;;;;;63.08;54.13;;;28.60;91.10;;;;;;1891689;74;21197;-87
2022/03/15 00:27:24;;;;;;;70.87;53.33;;;28.60;91.20;;;;;;1896725;74;21229;-87
2022/03/15 00:29:54;;;;;;;70.05;54.85;;;28.60;90.90;;;;;;1892769;74;21651;-87
2022/03/15 00:32:26;;;;;;;67.47;54.13;;;28.60;91.10;;;;;;1887632;74;21524;-87
2022/03/15 00:34:57;;;;;;;67.65;54.42;;;28.60;91.10;;;;;;1887630;74;21167;-88
2022/03/15 00:37:28;;;;;;;68.12;54.63;;;28.50;91.10;;;;;;1883992;74;21116;-88
2022/03/15 00:39:59;;;;;;;62.73;53.55;;;28.50;91.10;;;;;;1869182;75;21909;-88
2022/03/15 00:42:30;;;;;;;67.50;52.55;;;28.60;91.30;;;;;;1940054;73;21122;-87
2022/03/15 00:45:01;;;;;;;65.62;52.20;;;28.60;91.30;;;;;;1932097;73;21108;-88
2022/03/15 00:47:32;;;;;;;63.08;52.25;;;28.60;91.30;;;;;;1929632;73;21151;-89
2022/03/15 00:50:04;;;;;;;65.05;53.45;;;28.60;91.20;;;;;;1893612;73;21087;-89
2022/03/15 00:52:35;;;;;;;60.60;50.98;;;28.70;91.30;;;;;;1880889;75;21853;-88
2022/03/15 00:55:06;;;;;;;60.98;49.88;;;28.70;91.00;;;;;;1893104;74;21236;-87
2022/03/15 00:57:37;;;;;;;56.98;47.90;;;28.60;90.90;;;;;;1895108;74;21213;-88
2022/03/15 01:00:12;;;;;;;65.75;49.08;;;28.60;90.20;;;;;;1880261;75;21132;-87
2022/03/15 01:02:43;;;;;;;60.43;48.78;;;28.70;90.10;;;;;;1879286;75;21680;-89
2022/03/15 01:05:14;;;;;;;65.20;52.00;;;28.70;90.00;;;;;;1923756;73;22292;-88
2022/03/15 01:07:45;;;;;;;59.88;50.75;;;28.80;90.40;;;;;;1923373;73;21188;-89
2022/03/15 01:10:15;;;;;;;60.43;50.33;;;28.80;90.10;;;;;;1880426;75;21119;-88
2022/03/15 01:12:46;;;;;;;65.75;52.33;;;28.90;90.30;;;;;;1888113;74;21111;-88
2022/03/15 01:15:17;;;;;;;58.63;49.40;;;28.90;90.30;;;;;;1948588;73;21536;-88
2022/03/15 01:17:48;;;;;;;57.62;47.80;;;29.00;90.10;;;;;;1942386;72;21555;-88
2022/03/15 01:20:19;;;;;;;57.80;49.27;;;29.10;89.90;;;;;;1929815;73;21179;-88
2022/03/15 01:22:50;;;;;;;60.85;50.48;;;29.20;89.60;;;;;;1930220;73;21092;-89
2022/03/15 01:25:22;;;;;;;56.40;47.33;;;29.20;87.30;;;;;;1883137;75;21141;-88
2022/03/15 01:27:53;;;;;;;57.98;49.35;;;29.30;86.20;;;;;;1935169;73;21623;-88
2022/03/15 01:30:24;;;;;;;61.83;50.38;;;29.40;87.40;;;;;;1876485;74;21213;-89
2022/03/15 01:32:55;;;;;;;58.40;50.40;;;29.40;87.40;;;;;;1892761;74;21134;-88
2022/03/15 01:35:26;;;;;;;56.30;50.12;;;29.50;87.40;;;;;;1868845;76;21145;-89
2022/03/15 01:37:57;;;;;;;58.38;48.85;;;29.50;86.80;;;;;;1927660;73;21087;-88
2022/03/15 01:40:28;;;;;;;55.38;49.30;;;29.50;86.50;;;;;;1922275;73;21104;-88
2022/03/15 01:42:59;;;;;;;64.82;52.43;;;29.60;85.90;;;;;;1915947;73;21693;-89
2022/03/15 01:45:32;;;;;;;59.40;49.58;;;29.70;85.60;;;;;;1899870;74;21135;-87
2022/03/15 01:48:04;;;;;;;60.08;50.70;;;29.70;85.80;;;;;;1873356;75;21641;-87
2022/03/15 01:50:36;;;;;;;59.25;50.20;;;29.80;85.70;;;;;;1891618;74;21159;-89
2022/03/15 01:53:08;;;;;;;64.82;50.03;;;29.90;85.10;;;;;;1877516;76;21209;-87
2022/03/15 01:55:39;;;;;;;59.88;49.35;;;30.00;84.60;;;;;;1934421;73;21143;-89
2022/03/15 01:58:10;;;;;;;57.75;50.43;;;30.00;84.20;;;;;;1943660;73;21197;-87
2022/03/15 02:00:41;;;;;;;63.35;53.55;;;30.10;83.50;;;;;;1939441;73;21139;-87
2022/03/15 02:03:11;;;;;;;63.28;53.80;;;30.20;83.00;;;;;;1952521;72;21677;-87
2022/03/15 02:05:43;;;;;;;60.03;53.52;;;30.30;82.40;;;;;;1937184;73;21170;-87
2022/03/15 02:08:16;;;;;;;59.08;52.62;;;30.30;82.20;;;;;;1922333;73;21108;-86
2022/03/15 02:10:47;;;;;;;59.70;52.13;;;30.30;81.80;;;;;;1945669;72;21720;-86
2022/03/15 02:13:18;;;;;;;61.55;54.55;;;30.30;80.90;;;;;;1953897;73;22083;-86
2022/03/15 02:15:49;;;;;;;61.53;54.55;;;30.40;81.10;;;;;;1956559;73;21040;-87
2022/03/15 02:18:21;;;;;;;63.08;53.60;;;30.40;80.90;;;;;;1935478;73;21159;-85
2022/03/15 02:20:51;;;;;;;59.60;50.92;;;30.50;80.60;;;;;;1940158;73;21123;-86
2022/03/15 02:23:22;;;;;;;63.00;52.75;;;30.50;80.60;;;;;;1869866;75;21193;-88
2022/03/15 02:25:53;;;;;;;61.35;49.88;;;30.50;80.70;;;;;;1860558;76;21226;-88
2022/03/15 02:28:24;;;;;;;61.77;52.45;;;30.70;80.30;;;;;;1849004;76;21205;-87
2022/03/15 02:30:56;;;;;;;52.65;46.08;;;30.70;80.20;;;;;;1858665;75;21099;-87
2022/03/15 02:33:26;;;;;;;62.85;47.33;;;30.80;81.60;;;;;;1919470;73;21103;-87
2022/03/15 02:35:57;;;;;;;54.85;47.85;;;31.00;81.70;;;;;;1913036;73;21167;-86
2022/03/15 02:38:28;;;;;;;55.60;45.38;;;31.00;81.10;;;;;;1879038;74;21598;-87
2022/03/15 02:41:00;;;;;;;53.28;45.60;;;31.10;80.40;;;;;;1887827;74;21126;-85
2022/03/15 02:43:31;;;;;;;54.53;46.20;;;31.20;81.30;;;;;;1921492;73;21119;-85
2022/03/15 02:46:02;;;;;;;54.45;44.77;;;31.30;81.20;;;;;;1913400;74;21121;-87
2022/03/15 02:48:33;;;;;;;57.05;45.52;;;31.30;81.10;;;;;;1926450;73;21237;-87
2022/03/15 02:51:12;;;;;;;53.15;46.30;;;31.40;80.80;;;;;;1884534;73;21185;-87
2022/03/15 02:53:38;;;;;;;49.95;44.55;;;31.50;81.30;;;;;;1898257;74;21214;-87
2022/03/15 02:56:11;;;;;;;52.88;44.63;;;31.50;80.60;;;;;;1886695;75;21147;-88
2022/03/15 02:58:42;;;;;;;52.95;44.67;;;31.50;80.60;;;;;;1871383;75;21099;-87
2022/03/15 03:01:13;;;;;;;51.75;46.15;;;31.70;80.40;;;;;;1930644;73;21114;-88
2022/03/15 03:03:44;;;;;;;52.43;45.10;;;31.70;79.80;;;;;;1889809;74;21163;-87
2022/03/15 03:06:15;;;;;;;51.42;45.45;;;31.70;79.70;;;;;;1916967;73;21181;-87
2022/03/15 03:08:46;;;;;;;59.90;48.05;;;31.80;79.50;;;;;;1908860;73;21124;-87
2022/03/15 03:11:17;;;;;;;53.17;45.88;;;31.90;79.60;;;;;;1872666;75;21138;-87
2022/03/15 03:13:50;;;;;;;56.58;46.37;;;32.00;79.60;;;;;;1912592;75;21072;-87
2022/03/15 03:16:20;;;;;;;53.70;45.67;;;32.10;78.70;;;;;;1897943;74;21673;-87
2022/03/15 03:18:53;;;;;;;54.85;47.70;;;32.20;78.90;;;;;;1916261;73;21597;-86
2022/03/15 03:21:25;;;;;;;51.55;45.90;;;32.30;78.00;;;;;;1871187;76;21162;-87
2022/03/15 03:23:56;;;;;;;56.05;47.17;;;32.30;78.10;;;;;;1883759;75;21803;-87
2022/03/15 03:26:27;;;;;;;49.85;43.85;;;32.40;78.00;;;;;;1888555;74;21275;-86
2022/03/15 03:28:58;;;;;;;51.05;45.65;;;32.50;77.90;;;;;;1889578;75;21221;-87
2022/03/15 03:31:30;;;;;;;52.15;46.18;;;32.60;77.60;;;;;;1865756;76;21149;-88
2022/03/15 03:34:01;;;;;;;50.67;44.93;;;32.70;77.20;;;;;;1892426;74;21130;-87
2022/03/15 03:36:34;;;;;;;50.63;44.77;;;32.80;76.90;;;;;;1889610;74;21551;-87
2022/03/15 03:39:07;;;;;;;50.28;44.83;;;32.90;76.70;;;;;;1902805;74;21146;-88
2022/03/15 03:41:38;;;;;;;49.90;43.50;;;33.00;76.20;;;;;;1889176;74;21218;-89
2022/03/15 03:44:09;;;;;;;53.00;44.35;;;33.20;76.50;;;;;;1889613;74;21131;-87
2022/03/15 03:46:39;;;;;;;55.83;47.70;;;33.20;75.70;;;;;;1840936;76;21183;-87
2022/03/15 03:49:10;;;;;;;60.35;48.28;;;33.30;75.10;;;;;;1852463;76;21156;-87
2022/03/15 03:51:42;;;;;;;54.20;48.20;;;33.40;74.30;;;;;;1868004;75;21226;-87
2022/03/15 03:54:13;;;;;;;54.38;45.92;;;33.50;74.10;;;;;;1919008;74;21208;-88
2022/03/15 03:56:44;;;;;;;50.43;44.88;;;33.60;73.90;;;;;;1922521;74;21085;-88
2022/03/15 03:59:15;;;;;;;52.48;44.98;;;33.70;74.40;;;;;;1922955;73;21071;-87
2022/03/15 04:01:46;;;;;;;48.92;43.28;;;33.80;74.60;;;;;;1915922;74;21127;-86
2022/03/15 04:04:17;;;;;;;47.17;41.10;;;35.30;74.90;;;;;;1919400;73;21601;-89
2022/03/15 04:06:48;;;;;;;52.00;45.58;;;33.80;73.50;;;;;;1877592;75;21088;-88
2022/03/15 04:09:19;;;;;;;48.25;43.10;;;33.90;73.60;;;;;;1857012;75;21683;-89
2022/03/15 04:11:50;;;;;;;56.40;44.60;;;33.90;73.00;;;;;;1836422;77;21164;-90
2022/03/15 04:14:22;;;;;;;51.35;42.90;;;33.90;73.00;;;;;;1863689;75;21103;-88
2022/03/15 04:16:53;;;;;;;48.00;42.80;;;33.90;73.20;;;;;;1878293;74;21248;-88
2022/03/15 04:19:24;;;;;;;48.30;41.83;;;34.00;72.90;;;;;;1942633;73;21063;-88
2022/03/15 04:21:56;;;;;;;49.15;41.58;;;34.30;73.00;;;;;;1872537;74;21507;-87
2022/03/15 04:24:27;;;;;;;45.80;41.05;;;34.20;72.20;;;;;;1931262;73;21634;-87
2022/03/15 04:26:59;;;;;;;49.35;41.20;;;34.20;72.50;;;;;;1881207;74;21164;-87
2022/03/15 04:29:30;;;;;;;50.17;42.78;;;34.30;72.60;;;;;;1929996;73;22062;-88
2022/03/15 04:32:01;;;;;;;51.25;42.38;;;34.40;72.10;;;;;;1895456;74;21605;-87
2022/03/15 04:34:32;;;;;;;46.53;41.60;;;34.50;71.30;;;;;;1929989;73;21151;-87
2022/03/15 04:37:03;;;;;;;46.63;41.68;;;34.70;71.40;;;;;;1881415;75;21108;-86
2022/03/15 04:39:34;;;;;;;46.20;39.70;;;34.70;71.10;;;;;;1886707;74;21130;-86
2022/03/15 04:42:06;;;;;;;49.58;40.08;;;34.80;71.90;;;;;;1901790;74;21089;-86
2022/03/15 04:44:37;;;;;;;45.67;40.75;;;34.80;70.70;;;;;;1940294;73;21143;-86
2022/03/15 04:47:08;;;;;;;46.77;41.40;;;34.80;69.90;;;;;;1931748;73;21087;-86
2022/03/15 04:49:39;;;;;;;49.05;42.75;;;34.80;70.00;;;;;;1894606;74;21151;-85
2022/03/15 04:52:10;;;;;;;50.20;39.58;;;35.00;70.50;;;;;;1892978;74;21128;-85
2022/03/15 04:54:40;;;;;;;47.98;41.85;;;35.00;70.10;;;;;;1854851;76;21185;-85
2022/03/15 04:57:11;;;;;;;50.63;44.58;;;35.10;69.70;;;;;;1876681;75;21209;-86
2022/03/15 04:59:42;;;;;;;48.83;43.52;;;35.20;68.50;;;;;;1879609;74;21571;-87
2022/03/15 05:02:12;;;;;;;46.77;41.53;;;35.30;67.30;;;;;;1913215;73;21107;-86
2022/03/15 05:05:12;;;;;;;46.53;41.58;;;35.30;67.30;;;;;;1938293;73;21552;-87
2022/03/15 05:07:22;;;;;;;50.70;43.28;;;35.30;67.10;;;;;;1913220;73;21118;-86
2022/03/15 05:12:25;;;;;;;47.88;41.80;;;35.40;65.50;;;;;;1941042;73;21116;-86
2022/03/15 05:14:56;;;;;;;49.45;42.05;;;35.50;66.20;;;;;;1939934;73;21115;-86
2022/03/15 05:17:29;;;;;;;46.83;41.88;;;35.50;65.30;;;;;;1918522;73;21174;-86
2022/03/15 05:20:02;;;;;;;46.98;42.08;;;35.60;64.50;;;;;;1915935;73;21183;-86
2022/03/15 05:22:33;;;;;;;46.55;41.55;;;35.70;63.90;;;;;;1869964;75;21230;-87
2022/03/15 05:25:04;;;;;;;46.80;41.83;;;35.70;63.00;;;;;;1862321;75;21168;-87
2022/03/15 05:27:36;;;;;;;47.15;40.33;;;35.80;64.20;;;;;;1919759;73;22015;-86
2022/03/15 05:30:07;;;;;;;44.33;39.33;;;35.80;63.50;;;;;;1905436;73;21519;-86
2022/03/15 05:32:43;;;;;;;46.50;41.30;;;35.80;63.20;;;;;;1907745;73;21165;-86
2022/03/15 05:35:10;;;;;;;42.62;38.23;;;35.90;63.50;;;;;;1876845;75;21130;-87
2022/03/15 05:37:41;;;;;;;42.43;37.90;;;36.00;63.30;;;;;;1851807;77;21097;-86
2022/03/15 05:40:12;;;;;;;43.08;38.40;;;36.00;63.60;;;;;;1876956;74;21143;-86
2022/03/15 05:42:43;;;;;;;45.30;38.95;;;36.10;63.10;;;;;;1867686;75;21552;-86
2022/03/15 05:45:15;;;;;;;43.20;38.70;;;36.20;62.90;;;;;;1903215;74;21092;-85
2022/03/15 05:47:45;;;;;;;49.70;37.63;;;36.20;61.50;;;;;;1870067;75;21209;-86
2022/03/15 05:50:16;;;;;;;42.43;37.65;;;36.20;61.80;;;;;;1872363;74;21154;-87
2022/03/15 05:52:47;;;;;;;41.65;37.17;;;36.10;61.30;;;;;;1863989;74;21195;-87
2022/03/15 05:55:20;;;;;;;39.88;35.50;;;36.00;61.60;;;;;;1912370;73;21130;-87
2022/03/15 05:57:51;;;;;;;39.78;35.75;;;35.90;61.10;;;;;;1911708;73;21238;-88
2022/03/15 06:00:21;;;;;;;39.75;35.68;;;35.80;61.00;;;;;;1919123;73;21150;-87
2022/03/15 06:02:52;;;;;;;40.28;36.00;;;35.80;59.70;;;;;;1879760;75;21130;-87
2022/03/15 06:05:23;;;;;;;39.73;35.50;;;35.70;59.00;;;;;;1933040;73;21178;-87
2022/03/15 06:07:55;;;;;;;37.85;33.33;;;35.60;58.60;;;;;;1915010;73;21085;-86
2022/03/15 06:10:28;;;;;;;37.25;33.55;;;35.70;58.70;;;;;;1902202;73;21618;-86
2022/03/15 06:12:59;;;;;;;38.40;34.18;;;35.70;58.10;;;;;;1922789;74;21142;-86
2022/03/15 06:15:30;;;;;;;39.38;35.13;;;35.70;58.20;;;;;;1924185;73;21147;-86
2022/03/15 06:18:01;;;;;;;42.05;35.48;;;35.80;59.30;;;;;;1918721;73;21077;-86
2022/03/15 06:20:32;;;;;;;37.70;34.00;;;35.90;59.20;;;;;;1896587;74;21227;-86
2022/03/15 06:23:03;;;;;;;39.75;35.75;;;36.00;57.90;;;;;;1923508;73;21119;-87
2022/03/15 06:25:34;;;;;;;40.63;36.33;;;36.10;58.00;;;;;;1912915;74;21212;-87
2022/03/15 06:28:05;;;;;;;40.85;36.50;;;36.20;58.60;;;;;;1921969;73;21429;-85
2022/03/15 06:30:36;;;;;;;39.45;35.03;;;36.30;59.10;;;;;;1914744;73;21142;-85
2022/03/15 06:33:07;;;;;;;39.45;35.23;;;36.30;58.20;;;;;;1879364;75;21131;-85
2022/03/15 06:35:39;;;;;;;41.77;37.25;;;36.20;57.60;;;;;;1864688;75;21092;-85
2022/03/15 06:38:11;;;;;;;42.58;37.93;;;36.20;58.50;;;;;;1864812;74;21104;-87
2022/03/15 06:40:42;;;;;;;39.30;34.70;;;36.10;59.00;;;;;;1879177;74;21781;-86
2022/03/15 06:43:13;;;;;;;40.58;35.98;;;36.10;58.40;;;;;;1844668;76;21190;-86
2022/03/15 06:45:46;;;;;;;45.05;34.83;;;36.10;58.70;;;;;;1849096;76;21685;-86
2022/03/15 06:48:16;;;;;;;39.03;34.95;;;36.10;58.10;;;;;;1885597;74;21122;-86
2022/03/15 06:50:47;;;;;;;39.40;35.33;;;36.10;58.70;;;;;;1878485;74;21172;-86
2022/03/15 06:53:18;;;;;;;40.52;34.20;;;36.20;58.00;;;;;;1897430;74;21084;-85
2022/03/15 06:55:49;;;;;;;41.48;35.13;;;36.20;57.50;;;;;;1923144;73;21040;-87
2022/03/15 06:58:20;;;;;;;43.92;34.65;;;36.30;57.80;;;;;;1915560;73;21142;-86
2022/03/15 07:00:51;;;;;;;37.93;34.03;;;36.40;58.00;;;;;;1922407;73;21209;-86
2022/03/15 07:03:22;;;;;;;37.30;33.35;;;36.50;57.80;;;;;;1910232;73;21036;-87
2022/03/15 07:05:53;;;;;;;36.28;32.53;;;36.40;57.90;;;;;;1913545;73;21146;-86
2022/03/15 07:08:24;;;;;;;37.35;33.48;;;36.40;57.80;;;;;;1910352;74;21049;-86
2022/03/15 07:10:55;;;;;;;37.93;32.20;;;36.30;57.00;;;;;;1911512;73;21420;-87
2022/03/15 07:13:26;;;;;;;39.45;32.28;;;36.30;57.80;;;;;;1904004;73;21193;-86
2022/03/15 07:15:59;;;;;;;35.45;31.85;;;36.20;57.70;;;;;;1911142;74;21190;-86
2022/03/15 07:18:30;;;;;;;37.33;32.30;;;36.20;57.00;;;;;;1910013;73;21491;-84
2022/03/15 07:21:01;;;;;;;36.98;32.35;;;36.20;57.00;;;;;;1872422;75;21234;-87
2022/03/15 07:23:31;;;;;;;37.98;33.80;;;36.20;58.00;;;;;;1841997;76;21215;-87
2022/03/15 07:26:02;;;;;;;36.55;32.53;;;36.20;57.70;;;;;;1882290;75;21159;-87
2022/03/15 07:28:34;;;;;;;36.25;32.48;;;36.20;57.70;;;;;;1876910;74;21150;-86
2022/03/15 07:31:06;;;;;;;38.50;34.00;;;36.10;58.00;;;;;;1880528;75;21108;-87
2022/03/15 07:33:37;;;;;;;35.88;32.08;;;36.10;57.70;;;;;;1878216;75;21083;-85
2022/03/15 07:36:08;;;;;;;38.15;31.68;;;36.00;57.60;;;;;;1926663;73;21181;-86
2022/03/15 07:38:38;;;;;;;36.73;32.25;;;35.90;57.30;;;;;;1917720;74;21112;-85
2022/03/15 07:41:09;;;;;;;35.45;31.87;;;35.90;58.20;;;;;;1923490;73;21256;-87
2022/03/15 07:43:40;;;;;;;34.63;30.92;;;35.90;57.60;;;;;;1925948;73;21154;-86
2022/03/15 07:46:11;;;;;;;37.83;31.05;;;35.90;57.50;;;;;;1926193;73;21076;-85
2022/03/15 07:48:42;;;;;;;33.30;29.32;;;35.80;57.40;;;;;;1916574;73;21190;-85
2022/03/15 07:51:14;;;;;;;34.85;31.20;;;35.70;57.20;;;;;;1914765;73;21641;-85
2022/03/15 07:53:44;;;;;;;34.13;30.52;;;35.70;57.70;;;;;;1915582;74;21520;-87
2022/03/15 07:56:16;;;;;;;35.05;31.40;;;35.70;58.30;;;;;;1919379;74;21036;-86
2022/03/15 07:58:47;;;;;;;36.13;32.33;;;35.70;58.20;;;;;;1925159;73;21028;-86
2022/03/15 08:01:19;;;;;;;36.08;30.37;;;35.80;58.70;;;;;;1925111;73;21076;-86
2022/03/15 08:03:52;;;;;;;34.23;30.75;;;35.80;58.40;;;;;;1915265;73;21152;-86
2022/03/15 08:06:22;;;;;;;34.75;31.10;;;35.90;57.80;;;;;;1918084;73;21119;-87
2022/03/15 08:08:57;;;;;;;33.02;29.50;;;35.90;57.90;;;;;;1882992;74;21092;-87
2022/03/15 08:11:26;;;;;;;38.40;31.42;;;35.90;57.90;;;;;;1913170;73;21149;-87
2022/03/15 08:13:58;;;;;;;35.30;31.62;;;35.90;58.40;;;;;;1922093;73;21182;-87
2022/03/15 08:16:29;;;;;;;33.88;30.43;;;36.00;58.50;;;;;;1923103;73;21256;-87
2022/03/15 08:19:00;;;;;;;35.68;30.35;;;35.90;57.30;;;;;;1883966;74;21119;-88
2022/03/15 08:21:31;;;;;;;30.95;27.52;;;35.90;56.20;;;;;;1897282;74;21609;-89
2022/03/15 08:24:02;;;;;;;31.68;28.35;;;36.00;56.50;;;;;;1882387;75;21130;-88
2022/03/15 08:26:33;;;;;;;33.18;28.32;;;35.90;55.70;;;;;;1865486;75;21127;-86
2022/03/15 08:29:03;;;;;;;33.60;29.18;;;36.00;55.30;;;;;;1886689;74;21231;-86
2022/03/15 08:31:34;;;;;;;30.95;27.85;;;35.90;55.10;;;;;;1897526;74;21225;-87
2022/03/15 08:34:05;;;;;;;35.05;27.87;;;35.90;54.00;;;;;;1944308;73;21243;-88
2022/03/15 08:36:36;;;;;;;31.65;28.38;;;35.80;53.90;;;;;;1899586;73;21221;-87
2022/03/15 08:39:07;;;;;;;32.60;29.10;;;35.80;54.80;;;;;;1901557;74;21128;-87
2022/03/15 08:41:39;;;;;;;33.42;29.27;;;35.80;55.60;;;;;;1901338;74;21146;-87
2022/03/15 08:44:10;;;;;;;31.68;28.38;;;35.80;55.70;;;;;;1868635;75;21171;-86
2022/03/15 08:46:42;;;;;;;32.00;28.52;;;35.80;55.50;;;;;;1844959;75;21262;-86
2022/03/15 08:49:13;;;;;;;31.12;27.93;;;35.80;55.10;;;;;;1869333;75;21718;-88
2022/03/15 08:51:47;;;;;;;31.35;27.90;;;35.80;55.50;;;;;;1870645;76;21171;-86
2022/03/15 08:54:20;;;;;;;29.75;26.62;;;35.90;54.10;;;;;;1819331;76;21198;-86
2022/03/15 08:56:50;;;;;;;30.68;27.55;;;35.90;53.20;;;;;;1886148;74;21634;-85
2022/03/15 08:59:21;;;;;;;31.52;27.22;;;35.90;53.60;;;;;;1861173;76;21162;-87
2022/03/15 09:01:53;;;;;;;31.85;28.55;;;35.90;53.10;;;;;;1830469;77;21300;-86
2022/03/15 09:04:25;;;;;;;30.52;27.32;;;36.00;53.30;;;;;;1819030;77;21113;-87
2022/03/15 09:06:56;;;;;;;32.03;28.50;;;36.00;53.60;;;;;;1880915;74;21192;-87
2022/03/15 09:09:27;;;;;;;32.55;29.07;;;36.00;53.40;;;;;;1899061;74;21297;-86
2022/03/15 09:11:59;;;;;;;31.57;27.65;;;35.90;53.40;;;;;;1878500;74;21626;-84
2022/03/15 09:14:30;;;;;;;30.35;27.02;;;36.00;53.20;;;;;;1847944;75;21135;-84
2022/03/15 09:17:01;;;;;;;36.42;28.07;;;35.90;53.60;;;;;;1891176;74;21119;-84
2022/03/15 09:19:32;;;;;;;30.75;27.55;;;36.00;54.20;;;;;;1846948;75;21150;-85
2022/03/15 09:22:04;;;;;;;35.10;31.55;;;35.90;55.00;;;;;;1826672;77;21083;-84
2022/03/15 09:24:36;;;;;;;31.80;28.47;;;35.80;54.50;;;;;;1894158;74;21095;-83
2022/03/15 09:27:07;;;;;;;34.70;31.17;;;35.80;54.90;;;;;;1857636;76;21180;-84
2022/03/15 09:29:38;;;;;;;34.35;29.52;;;35.80;54.70;;;;;;1847827;76;21646;-85
2022/03/15 09:32:10;;;;;;;29.35;26.50;;;35.80;55.40;;;;;;1857511;76;21146;-84
2022/03/15 09:34:42;;;;;;;31.73;28.30;;;35.70;55.10;;;;;;1880364;75;21098;-85
2022/03/15 09:37:13;;;;;;;31.17;27.77;;;35.70;54.50;;;;;;1855694;75;21214;-85
2022/03/15 09:39:44;;;;;;;34.35;30.95;;;35.70;54.20;;;;;;1844122;76;21126;-85
2022/03/15 09:42:16;;;;;;;33.88;29.37;;;35.70;54.40;;;;;;1864340;75;21095;-84
2022/03/15 09:44:48;;;;;;;34.65;28.23;;;35.60;54.60;;;;;;1858381;75;21187;-85
2022/03/15 09:47:20;;;;;;;32.28;28.38;;;35.60;53.50;;;;;;1852658;76;21246;-86
2022/03/15 09:49:54;;;;;;;32.08;28.73;;;35.60;53.70;;;;;;1857380;76;21174;-85
2022/03/15 09:52:26;;;;;;;31.27;26.45;;;35.60;54.00;;;;;;1855157;76;21809;-85
2022/03/15 09:54:58;;;;;;;28.85;26.00;;;35.60;53.70;;;;;;1832251;75;21158;-85
2022/03/15 09:57:30;;;;;;;28.67;25.80;;;35.60;52.80;;;;;;1831852;77;21665;-86
2022/03/15 10:00:02;;;;;;;28.40;25.55;;;35.60;52.40;;;;;;1853146;75;21138;-87
2022/03/15 10:02:33;;;;;;;30.08;26.87;;;35.60;52.40;;;;;;1851937;75;21056;-86
2022/03/15 10:05:04;;;;;;;29.98;26.40;;;35.60;52.10;;;;;;1848433;75;21222;-87
2022/03/15 10:07:36;;;;;;;31.48;28.12;;;35.70;52.30;;;;;;1889912;74;21609;-86
2022/03/15 10:10:10;;;;;;;30.72;26.97;;;35.70;53.30;;;;;;1887688;74;21189;-85
2022/03/15 10:12:40;;;;;;;32.53;29.23;;;35.60;52.60;;;;;;1839120;75;21515;-87
2022/03/15 10:15:13;;;;;;;29.52;26.62;;;35.60;53.10;;;;;;1847451;75;21088;-86
2022/03/15 10:17:47;;;;;;;34.10;27.22;;;35.60;53.40;;;;;;1868601;75;21071;-85
2022/03/15 10:20:19;;;;;;;29.45;26.37;;;35.60;53.70;;;;;;1850008;75;21748;-83
2022/03/15 10:22:52;;;;;;;30.75;27.62;;;35.50;52.70;;;;;;1854438;76;21115;-83
2022/03/15 10:25:24;;;;;;;29.18;26.30;;;35.50;53.00;;;;;;1849091;75;21842;-84
2022/03/15 10:27:57;;;;;;;30.20;27.02;;;35.50;52.80;;;;;;1876611;74;21221;-83
2022/03/15 10:30:30;;;;;;;29.75;26.60;;;35.50;53.10;;;;;;1887608;74;21060;-82
2022/03/15 10:33:02;;;;;;;28.62;25.72;;;35.40;53.00;;;;;;1890744;75;21185;-83
2022/03/15 10:35:35;;;;;;;29.80;26.70;;;35.40;53.50;;;;;;1887005;74;21099;-83
2022/03/15 10:38:08;;;;;;;34.98;30.35;;;35.40;53.70;;;;;;1840821;76;21202;-85
2022/03/15 10:40:41;;;;;;;32.17;28.95;;;35.30;54.50;;;;;;1839982;76;21209;-84
2022/03/15 10:43:14;;;;;;;32.80;29.37;;;35.30;55.40;;;;;;1814233;78;21688;-85
2022/03/15 10:45:47;;;;;;;33.15;29.85;;;35.20;56.30;;;;;;1831531;77;21278;-84
2022/03/15 10:48:20;;;;;;;31.95;28.07;;;35.20;56.60;;;;;;1837738;76;21135;-83
2022/03/15 10:50:54;;;;;;;32.83;29.07;;;35.10;57.00;;;;;;1854043;75;21287;-82
2022/03/15 10:53:28;;;;;;;32.55;29.15;;;35.00;57.30;;;;;;1890866;74;21123;-84
2022/03/15 10:56:02;;;;;;;33.18;29.80;;;35.00;57.70;;;;;;1902539;74;21237;-83
2022/03/15 10:58:34;;;;;;;33.10;29.60;;;34.90;58.10;;;;;;1851251;76;21167;-83
2022/03/15 11:01:07;;;;;;;33.38;30.05;;;34.80;58.30;;;;;;1892445;75;21084;-85
2022/03/15 11:03:38;;;;;;;33.75;30.23;;;34.80;58.60;;;;;;1854194;76;21215;-88
2022/03/15 11:06:11;;;;;;;33.25;29.25;;;34.80;58.70;;;;;;1840917;77;21511;-85
2022/03/15 11:08:43;;;;;;;33.45;29.75;;;34.70;58.70;;;;;;1863588;75;21217;-84
2022/03/15 11:11:16;;;;;;;36.85;30.92;;;34.70;58.80;;;;;;1877426;74;21222;-83
2022/03/15 11:13:47;;;;;;;34.75;30.82;;;34.70;59.00;;;;;;1847891;76;21311;-84
2022/03/15 11:16:18;;;;;;;33.42;29.15;;;34.60;59.10;;;;;;1886040;74;21135;-86
2022/03/15 11:18:50;;;;;;;35.52;32.00;;;34.60;59.20;;;;;;1852315;76;21161;-85
2022/03/15 11:21:22;;;;;;;36.83;32.95;;;34.50;59.30;;;;;;1856409;76;21178;-86
2022/03/15 11:23:55;;;;;;;38.95;31.73;;;34.50;59.50;;;;;;1845696;76;21177;-86
2022/03/15 11:26:28;;;;;;;36.28;32.45;;;34.40;59.70;;;;;;1847800;75;21119;-86
2022/03/15 11:29:00;;;;;;;36.05;30.85;;;34.50;59.90;;;;;;1861056;75;21234;-85
2022/03/15 11:31:33;;;;;;;36.50;32.63;;;34.40;60.00;;;;;;1880948;74;21852;-84
2022/03/15 11:34:04;;;;;;;36.28;30.60;;;34.40;60.30;;;;;;1881890;75;21178;-84
2022/03/15 11:36:35;;;;;;;33.20;29.63;;;34.30;60.00;;;;;;1888263;74;21599;-85
2022/03/15 11:39:07;;;;;;;33.18;28.50;;;34.30;59.40;;;;;;1878088;75;21095;-84
2022/03/15 11:41:38;;;;;;;32.90;29.57;;;34.20;59.50;;;;;;1886338;74;21664;-87
2022/03/15 11:44:11;;;;;;;33.92;30.35;;;34.20;59.70;;;;;;1890856;74;21123;-86
2022/03/15 11:46:45;;;;;;;32.45;28.98;;;34.10;59.80;;;;;;1886374;74;21154;-86
2022/03/15 11:49:19;;;;;;;33.18;29.20;;;34.10;60.10;;;;;;1847566;75;21088;-86
2022/03/15 11:51:52;;;;;;;33.23;27.80;;;33.90;60.30;;;;;;1805470;77;21274;-86
2022/03/15 11:54:26;;;;;;;32.13;28.83;;;33.80;60.60;;;;;;1851738;73;21076;-85
2022/03/15 11:57:00;;;;;;;32.65;28.05;;;33.70;60.90;;;;;;1837317;75;21668;-85
2022/03/15 11:59:35;;;;;;;42.13;29.60;;;33.70;61.00;;;;;;1825148;76;21480;-86
2022/03/15 12:02:05;;;;;;;37.78;29.30;;;33.60;61.10;;;;;;1853395;75;21212;-83
2022/03/15 12:04:38;;;;;;;32.40;27.95;;;33.50;61.00;;;;;;1837639;76;21139;-86
2022/03/15 12:07:11;;;;;;;38.33;28.12;;;33.50;61.20;;;;;;1850547;75;21172;-85
2022/03/15 12:09:44;;;;;;;37.13;28.35;;;33.40;61.40;;;;;;1851844;75;21223;-84
2022/03/15 12:12:16;;;;;;;32.58;28.17;;;33.30;61.60;;;;;;1854300;75;21574;-85
2022/03/15 12:14:51;;;;;;;34.38;29.95;;;33.30;61.80;;;;;;1845539;75;21318;-86
2022/03/15 12:17:20;;;;;;;38.73;28.60;;;33.30;61.90;;;;;;1849432;75;21360;-85
2022/03/15 12:19:54;;;;;;;32.98;27.73;;;33.20;62.10;;;;;;1874041;74;21883;-86
2022/03/15 12:22:27;;;;;;;33.35;28.10;;;33.10;63.00;;;;;;1882041;74;21152;-86
2022/03/15 12:25:00;;;;;;;33.48;27.32;;;33.10;62.10;;;;;;1889714;74;21176;-86
2022/03/15 12:27:34;;;;;;;31.57;26.15;;;33.10;61.80;;;;;;1886587;74;21199;-86
2022/03/15 12:30:05;;;;;;;34.92;27.93;;;33.10;61.70;;;;;;1882599;74;22633;-85
2022/03/15 12:32:36;;;;;;;37.58;28.50;;;33.10;62.00;;;;;;1849644;76;21648;-86
2022/03/15 12:35:11;;;;;;;33.58;26.35;;;33.00;61.80;;;;;;1837102;76;21197;-87
2022/03/15 12:37:40;;;;;;;36.15;27.82;;;33.00;61.70;;;;;;1819558;77;21166;-84
2022/03/15 12:40:12;;;;;;;34.08;28.38;;;33.00;61.70;;;;;;1868452;75;21825;-84
2022/03/15 12:42:45;;;;;;;38.65;28.10;;;33.00;61.60;;;;;;1879229;74;21256;-85
2022/03/15 12:45:16;;;;;;;34.30;28.15;;;33.00;61.70;;;;;;1854404;75;21216;-86
2022/03/15 12:47:47;;;;;;;31.52;27.67;;;33.00;61.90;;;;;;1880151;74;21076;-85
2022/03/15 12:50:21;;;;;;;36.93;29.23;;;33.00;62.40;;;;;;1882322;74;21264;-85
2022/03/15 12:52:56;;;;;;;34.35;27.15;;;33.00;61.90;;;;;;1844710;75;21157;-85